This is the latest recevied weather packets stored in our database for station/object W8CWV-13. If no packets are shown the sender has not sent any weather packets the latest 10 day(s).
| Time | Temp. | Humidity | Pressure | Rain* | Wind** | Luminosity | Snow |
|---|---|---|---|---|---|---|---|
| 1778181236 | 20.56° C | 100% | 1017.7 hPa | - | - | - | - |
| 1778180665 | 22.22° C | 100% | 1017.5 hPa | - | - | - | - |
| 1778180087 | 21.11° C | 100% | 1017.9 hPa | - | - | - | - |
| 1778179511 | 22.78° C | 100% | 1017.5 hPa | - | - | - | - |
| 1778178939 | 21.11° C | 100% | 1017.8 hPa | - | - | - | - |
| 1778178363 | 20.56° C | 100% | 1018.2 hPa | - | - | - | - |
| 1778177792 | 21.11° C | 100% | 1018 hPa | - | - | - | - |
| 1778177220 | 21.11° C | 100% | 1018.2 hPa | - | - | - | - |
| 1778176641 | 20° C | 100% | 1018.6 hPa | - | - | - | - |
| 1778176065 | 20° C | 100% | 1018.7 hPa | - | - | - | - |
| 1778175490 | 20.56° C | 100% | 1018.7 hPa | - | - | - | - |
| 1778174919 | 19.44° C | 100% | 1019.1 hPa | - | - | - | - |
| 1778174348 | 18.89° C | 100% | 1019.3 hPa | - | - | - | - |
| 1778173774 | 18.89° C | 100% | 1019.5 hPa | - | - | - | - |
| 1778173202 | 19.44° C | 100% | 1019.5 hPa | - | - | - | - |
| 1778172626 | 20° C | 100% | 1019.2 hPa | - | - | - | - |
| 1778172050 | 18.89° C | 100% | 1019.7 hPa | - | - | - | - |
| 1778171478 | 21.11° C | 100% | 1019.2 hPa | - | - | - | - |
| 1778170904 | 20° C | 100% | 1019.5 hPa | - | - | - | - |
| 1778170331 | 18.33° C | 100% | 1020.1 hPa | - | - | - | - |
| 1778169756 | 20.56° C | 100% | 1019.5 hPa | - | - | - | - |
| 1778169184 | 17.78° C | 100% | 1019.9 hPa | - | - | - | - |
| 1778168606 | 18.33° C | 100% | 1020 hPa | - | - | - | - |
| 1778168035 | 17.78° C | 100% | 1020.1 hPa | - | - | - | - |
| 1778167461 | 17.22° C | 100% | 1020 hPa | - | - | - | - |
* Rain since midnight (hover to see other rain measurements)
** Current wind speed in m/s (hover to see current wind gust speed)